Time;durP1;ratioP1;P1;durP2;ratioP2;P2;SDS_P1;SDS_P2;PMS_P1;PMS_P2;Temp;Humidity;BMP_temperature;BMP_pressure;BME280_temperature;BME280_humidity;BME280_pressure;Samples;Min_cycle;Max_cycle;Signal;HPM_P1;HPM_P2
2022/04/08 00:00:13;;;;;;;8.43;1.17;;;;;;;;;;5012113;28;20182;-71
2022/04/08 00:02:38;;;;;;;4.83;0.80;;;;;;;;;;5014037;28;20190;-70
2022/04/08 00:05:06;;;;;;;7.13;1.00;;;;;;;;;;5024983;28;20260;-71
2022/04/08 00:07:31;;;;;;;6.30;0.97;;;;;;;;;;5025758;28;20287;-72
2022/04/08 00:09:56;;;;;;;6.47;0.90;;;;;;;;;;5026176;28;20229;-70
2022/04/08 00:12:22;;;;;;;7.40;2.07;;;;;;;;;;5015981;28;20247;-71
2022/04/08 00:14:47;;;;;;;5.17;0.80;;;;;;;;;;5026731;28;20253;-69
2022/04/08 00:17:13;;;;;;;5.10;0.63;;;;;;;;;;5018049;28;20197;-71
2022/04/08 00:19:38;;;;;;;2.60;0.60;;;;;;;;;;5021179;28;20255;-71
2022/04/08 00:22:05;;;;;;;4.40;0.60;;;;;;;;;;5024128;28;20194;-74
2022/04/08 00:24:31;;;;;;;5.80;0.70;;;;;;;;;;5012464;28;20741;-72
2022/04/08 00:26:56;;;;;;;4.57;0.80;;;;;;;;;;5025886;28;20284;-73
2022/04/08 00:29:21;;;;;;;5.07;0.43;;;;;;;;;;5029354;28;20266;-73
2022/04/08 00:31:47;;;;;;;2.27;0.67;;;;;;;;;;5022076;28;20193;-73
2022/04/08 00:34:12;;;;;;;3.03;0.50;;;;;;;;;;5023315;28;20193;-71
2022/04/08 00:36:37;;;;;;;2.60;0.37;;;;;;;;;;5029779;28;20198;-73
2022/04/08 00:39:03;;;;;;;1.80;0.30;;;;;;;;;;5031061;28;20239;-72
2022/04/08 00:41:28;;;;;;;2.40;0.37;;;;;;;;;;5024721;28;20645;-72
2022/04/08 00:43:53;;;;;;;3.53;0.43;;;;;;;;;;5026578;28;20192;-73
2022/04/08 00:46:19;;;;;;;2.43;0.50;;;;;;;;;;5025841;28;20185;-73
2022/04/08 00:48:44;;;;;;;3.70;0.50;;;;;;;;;;5024871;28;20190;-74
2022/04/08 00:51:11;;;;;;;4.13;0.50;;;;;;;;;;5012177;28;20179;-73
2022/04/08 00:53:37;;;;;;;4.47;1.30;;;;;;;;;;5015274;28;20265;-74
2022/04/08 00:56:03;;;;;;;3.60;0.50;;;;;;;;;;5023580;28;20224;-73
2022/04/08 00:58:30;;;;;;;3.97;0.30;;;;;;;;;;5018328;28;20192;-72
2022/04/08 01:00:55;;;;;;;1.30;0.10;;;;;;;;;;5020093;28;20190;-72
2022/04/08 01:03:21;;;;;;;1.40;0.33;;;;;;;;;;5021896;28;20560;-71
2022/04/08 01:05:47;;;;;;;4.17;0.30;;;;;;;;;;5021613;28;20685;-70
2022/04/08 01:08:14;;;;;;;2.07;0.30;;;;;;;;;;5026380;28;20654;-71
2022/04/08 01:10:40;;;;;;;2.20;0.50;;;;;;;;;;5026491;28;20661;-72
2022/04/08 01:13:06;;;;;;;2.13;0.37;;;;;;;;;;5013744;28;20194;-73
2022/04/08 01:15:31;;;;;;;1.70;0.30;;;;;;;;;;5023623;28;20178;-72
2022/04/08 01:17:56;;;;;;;3.50;0.40;;;;;;;;;;5018231;28;20206;-72
2022/04/08 01:20:22;;;;;;;1.43;0.47;;;;;;;;;;5014635;28;20182;-71
2022/04/08 01:22:47;;;;;;;2.20;0.50;;;;;;;;;;5023729;28;20193;-71
2022/04/08 01:25:13;;;;;;;3.07;0.30;;;;;;;;;;5027668;28;20630;-71
2022/04/08 01:27:39;;;;;;;2.20;0.60;;;;;;;;;;5027294;28;20212;-71
2022/04/08 01:30:07;;;;;;;2.53;0.50;;;;;;;;;;5020077;28;20646;-70
2022/04/08 01:32:32;;;;;;;4.37;0.30;;;;;;;;;;5018332;28;20665;-70
2022/04/08 01:34:58;;;;;;;2.70;0.67;;;;;;;;;;5020760;28;20264;-72
2022/04/08 01:37:23;;;;;;;0.93;0.27;;;;;;;;;;5025103;28;20236;-73
2022/04/08 01:39:49;;;;;;;2.47;0.37;;;;;;;;;;5025034;28;20178;-72
2022/04/08 01:42:14;;;;;;;3.87;0.80;;;;;;;;;;5022854;28;20250;-72
2022/04/08 01:44:40;;;;;;;2.30;0.40;;;;;;;;;;5026550;28;20236;-71
2022/04/08 01:47:05;;;;;;;3.60;0.43;;;;;;;;;;5022986;28;20182;-72
2022/04/08 01:49:31;;;;;;;4.50;0.30;;;;;;;;;;5025598;28;20260;-71
2022/04/08 01:51:57;;;;;;;2.63;0.30;;;;;;;;;;5023878;28;20213;-71
2022/04/08 01:54:22;;;;;;;5.13;0.60;;;;;;;;;;5024250;28;20596;-69
2022/04/08 01:56:48;;;;;;;4.43;0.40;;;;;;;;;;5023071;28;20182;-69
2022/04/08 01:59:13;;;;;;;4.80;0.70;;;;;;;;;;5028181;28;20676;-71
2022/04/08 02:01:39;;;;;;;4.17;0.30;;;;;;;;;;5024694;28;20218;-70
2022/04/08 02:04:04;;;;;;;7.47;0.63;;;;;;;;;;5013833;28;20265;-70
2022/04/08 02:06:30;;;;;;;6.10;0.63;;;;;;;;;;5022538;28;20262;-70
2022/04/08 02:08:57;;;;;;;3.20;0.80;;;;;;;;;;5021547;28;20183;-70
2022/04/08 02:11:22;;;;;;;5.43;0.80;;;;;;;;;;5021439;28;20182;-69
2022/04/08 02:13:48;;;;;;;10.43;0.77;;;;;;;;;;5026392;28;20248;-70
2022/04/08 02:16:13;;;;;;;5.50;0.50;;;;;;;;;;5018478;28;20179;-71
2022/04/08 02:18:38;;;;;;;3.90;0.60;;;;;;;;;;5027067;28;20182;-70
2022/04/08 02:21:05;;;;;;;5.70;0.90;;;;;;;;;;5019197;28;20733;-69
2022/04/08 02:23:32;;;;;;;5.67;0.83;;;;;;;;;;5022871;28;20645;-68
2022/04/08 02:25:57;;;;;;;3.73;0.70;;;;;;;;;;5024198;28;20226;-68
2022/04/08 02:28:23;;;;;;;3.70;0.50;;;;;;;;;;5014882;28;20663;-68
2022/04/08 02:30:48;;;;;;;7.00;0.80;;;;;;;;;;5018650;28;20249;-68
2022/04/08 02:33:13;;;;;;;7.57;0.90;;;;;;;;;;5025384;28;20194;-69
2022/04/08 02:35:39;;;;;;;5.17;0.67;;;;;;;;;;5024541;28;20224;-69
2022/04/08 02:38:04;;;;;;;11.10;0.87;;;;;;;;;;5010361;28;20249;-69
2022/04/08 02:40:30;;;;;;;5.53;0.77;;;;;;;;;;5013702;28;20209;-69
2022/04/08 02:42:55;;;;;;;3.83;0.60;;;;;;;;;;5017930;28;20190;-69
2022/04/08 02:45:20;;;;;;;4.17;0.70;;;;;;;;;;5015519;28;20201;-69
2022/04/08 02:47:46;;;;;;;5.40;0.83;;;;;;;;;;5022493;28;20295;-69
2022/04/08 02:50:12;;;;;;;9.23;0.80;;;;;;;;;;5027075;28;20183;-69
2022/04/08 02:52:37;;;;;;;10.73;1.40;;;;;;;;;;5016772;28;20178;-69
2022/04/08 02:55:04;;;;;;;15.70;1.50;;;;;;;;;;5024575;28;20669;-69
2022/04/08 02:57:29;;;;;;;10.27;1.20;;;;;;;;;;5022302;28;20197;-69
2022/04/08 02:59:55;;;;;;;12.57;1.63;;;;;;;;;;5013524;28;20186;-69
2022/04/08 03:02:20;;;;;;;10.83;1.43;;;;;;;;;;5019194;28;20193;-69
2022/04/08 03:04:45;;;;;;;7.33;1.10;;;;;;;;;;5021197;28;20202;-69
2022/04/08 03:07:11;;;;;;;6.30;0.97;;;;;;;;;;5010357;28;20524;-70
2022/04/08 03:09:39;;;;;;;9.37;1.30;;;;;;;;;;5025665;28;20230;-69
2022/04/08 03:12:05;;;;;;;10.33;1.33;;;;;;;;;;5024932;28;20217;-69
2022/04/08 03:14:33;;;;;;;8.93;1.10;;;;;;;;;;5023750;28;20186;-69
2022/04/08 03:16:58;;;;;;;11.93;1.30;;;;;;;;;;5020223;28;20244;-69
2022/04/08 03:19:24;;;;;;;10.33;1.57;;;;;;;;;;5022919;28;20626;-69
2022/04/08 03:21:49;;;;;;;11.87;1.90;;;;;;;;;;5025660;28;20276;-69
2022/04/08 03:24:15;;;;;;;9.60;1.33;;;;;;;;;;5027057;28;20182;-68
2022/04/08 03:26:40;;;;;;;10.40;1.10;;;;;;;;;;5023592;28;20522;-69
2022/04/08 03:29:06;;;;;;;8.60;1.20;;;;;;;;;;5023167;28;20289;-68
2022/04/08 03:31:31;;;;;;;12.40;1.57;;;;;;;;;;5015157;28;20197;-68
2022/04/08 03:33:56;;;;;;;11.70;1.50;;;;;;;;;;5026204;28;20669;-69
2022/04/08 03:36:22;;;;;;;7.43;1.47;;;;;;;;;;5021456;28;20182;-69
2022/04/08 03:38:47;;;;;;;6.27;1.17;;;;;;;;;;5027250;28;20197;-69
2022/04/08 03:41:12;;;;;;;9.07;1.33;;;;;;;;;;5014671;28;20217;-68
2022/04/08 03:43:38;;;;;;;16.50;2.13;;;;;;;;;;5023392;28;20705;-68
2022/04/08 03:46:03;;;;;;;9.90;1.30;;;;;;;;;;5016344;28;20654;-68
2022/04/08 03:48:29;;;;;;;6.83;1.33;;;;;;;;;;5021740;28;20190;-68
2022/04/08 03:50:54;;;;;;;7.30;1.33;;;;;;;;;;5018645;28;20210;-68
2022/04/08 03:53:20;;;;;;;14.97;1.60;;;;;;;;;;5014274;28;20248;-68
2022/04/08 03:55:46;;;;;;;16.40;2.23;;;;;;;;;;5018758;28;20315;-68
2022/04/08 03:58:12;;;;;;;12.90;2.00;;;;;;;;;;5021844;28;20186;-68
2022/04/08 04:00:38;;;;;;;10.13;1.63;;;;;;;;;;5012135;28;20256;-68
2022/04/08 04:03:03;;;;;;;8.40;1.30;;;;;;;;;;5022623;28;20185;-68
2022/04/08 04:05:30;;;;;;;11.10;1.43;;;;;;;;;;5017333;28;20569;-68
2022/04/08 04:07:58;;;;;;;15.30;1.77;;;;;;;;;;5014758;28;20181;-68
2022/04/08 04:10:24;;;;;;;11.00;1.07;;;;;;;;;;5023769;28;20233;-68
2022/04/08 04:12:50;;;;;;;13.03;2.00;;;;;;;;;;5019709;28;20264;-67
2022/04/08 04:15:15;;;;;;;15.13;1.80;;;;;;;;;;5022250;28;20182;-68
2022/04/08 04:17:40;;;;;;;11.00;1.20;;;;;;;;;;5026537;28;20182;-68
2022/04/08 04:20:06;;;;;;;3.60;0.93;;;;;;;;;;5018802;28;20601;-68
2022/04/08 04:22:32;;;;;;;9.23;1.70;;;;;;;;;;5020040;28;20222;-68
2022/04/08 04:24:57;;;;;;;9.67;1.67;;;;;;;;;;5025666;28;20202;-68
2022/04/08 04:27:22;;;;;;;6.33;1.10;;;;;;;;;;5020554;28;20276;-67
2022/04/08 04:29:48;;;;;;;6.77;1.33;;;;;;;;;;5021277;28;20557;-67
2022/04/08 04:32:13;;;;;;;6.90;1.13;;;;;;;;;;5023477;28;20538;-67
2022/04/08 04:34:39;;;;;;;7.10;1.67;;;;;;;;;;5013572;28;20183;-68
2022/04/08 04:37:05;;;;;;;8.10;1.23;;;;;;;;;;5021799;28;20185;-68
2022/04/08 04:39:31;;;;;;;4.53;1.40;;;;;;;;;;5022901;28;20724;-67
2022/04/08 04:41:56;;;;;;;3.50;1.47;;;;;;;;;;5024194;28;20256;-67
2022/04/08 04:44:21;;;;;;;5.23;1.50;;;;;;;;;;5013579;28;20319;-68
2022/04/08 04:46:47;;;;;;;5.23;1.43;;;;;;;;;;5018578;28;20170;-68
2022/04/08 04:49:13;;;;;;;3.80;1.50;;;;;;;;;;5024543;28;20177;-68
2022/04/08 04:51:38;;;;;;;2.27;1.13;;;;;;;;;;5010404;28;20710;-68
2022/04/08 04:54:04;;;;;;;7.87;1.63;;;;;;;;;;5021551;28;20261;-68
2022/04/08 04:56:29;;;;;;;5.07;1.57;;;;;;;;;;5021790;28;20182;-68
2022/04/08 04:58:55;;;;;;;7.17;1.43;;;;;;;;;;5019915;28;20195;-68
2022/04/08 05:01:20;;;;;;;3.80;1.40;;;;;;;;;;5017482;28;20598;-68
2022/04/08 05:03:45;;;;;;;3.90;1.20;;;;;;;;;;5020516;28;20693;-68
2022/04/08 05:06:11;;;;;;;7.00;1.53;;;;;;;;;;5012395;28;20697;-68
2022/04/08 05:08:36;;;;;;;7.30;1.40;;;;;;;;;;5022026;28;20181;-67
2022/04/08 05:11:02;;;;;;;8.27;1.70;;;;;;;;;;5023010;28;20241;-68
2022/04/08 05:13:27;;;;;;;9.90;1.83;;;;;;;;;;5016679;28;20508;-68
2022/04/08 05:15:52;;;;;;;11.37;1.90;;;;;;;;;;5020280;28;20693;-69
2022/04/08 05:18:18;;;;;;;7.13;2.10;;;;;;;;;;5023357;28;20619;-69
2022/04/08 05:20:43;;;;;;;5.83;1.40;;;;;;;;;;5028272;28;20850;-68
2022/04/08 05:23:08;;;;;;;9.60;1.40;;;;;;;;;;5024947;28;20772;-68
2022/04/08 05:25:34;;;;;;;5.23;1.23;;;;;;;;;;5021361;28;20215;-68
2022/04/08 05:27:59;;;;;;;8.33;1.70;;;;;;;;;;5020665;28;20179;-68
2022/04/08 05:30:24;;;;;;;8.43;1.60;;;;;;;;;;5028307;28;20208;-68
2022/04/08 05:32:50;;;;;;;7.20;1.90;;;;;;;;;;5016688;28;20205;-68
2022/04/08 05:35:17;;;;;;;6.33;1.60;;;;;;;;;;5026831;28;20458;-69
2022/04/08 05:37:45;;;;;;;8.70;1.60;;;;;;;;;;5026276;28;20312;-68
2022/04/08 05:40:18;;;;;;;6.80;1.10;;;;;;;;;;5025080;28;20649;-68
2022/04/08 05:42:47;;;;;;;9.03;2.03;;;;;;;;;;5022142;28;20443;-68
2022/04/08 05:45:14;;;;;;;11.50;1.73;;;;;;;;;;5028816;28;20589;-68
2022/04/08 05:47:39;;;;;;;6.37;1.53;;;;;;;;;;5022759;28;20218;-68
2022/04/08 05:50:05;;;;;;;9.03;2.10;;;;;;;;;;5027310;28;20182;-68
2022/04/08 05:52:31;;;;;;;9.77;1.63;;;;;;;;;;5024837;28;20178;-69
2022/04/08 05:54:56;;;;;;;11.10;1.80;;;;;;;;;;5029249;28;20190;-69
2022/04/08 05:57:22;;;;;;;8.00;1.53;;;;;;;;;;5019453;28;20515;-69
2022/04/08 05:59:48;;;;;;;8.30;1.60;;;;;;;;;;5029173;28;20259;-69
2022/04/08 06:02:14;;;;;;;11.13;1.90;;;;;;;;;;5026756;28;20903;-68
2022/04/08 06:04:39;;;;;;;10.43;1.70;;;;;;;;;;5028176;28;20310;-68
2022/04/08 06:07:04;;;;;;;6.60;2.00;;;;;;;;;;5014604;28;20658;-68
2022/04/08 06:09:30;;;;;;;11.43;2.50;;;;;;;;;;5018346;28;20229;-68
2022/04/08 06:11:56;;;;;;;12.03;2.03;;;;;;;;;;5027367;28;20202;-68
2022/04/08 06:14:21;;;;;;;11.87;2.33;;;;;;;;;;5024785;28;20197;-68
2022/04/08 06:16:47;;;;;;;12.77;2.27;;;;;;;;;;5027841;28;20174;-68
2022/04/08 06:19:12;;;;;;;13.40;2.57;;;;;;;;;;5023239;28;20174;-68
2022/04/08 06:21:38;;;;;;;12.73;2.43;;;;;;;;;;5028599;28;20171;-68
2022/04/08 06:24:03;;;;;;;11.23;2.37;;;;;;;;;;5022357;28;20188;-67
2022/04/08 06:26:29;;;;;;;11.67;2.63;;;;;;;;;;5020389;28;20194;-67
2022/04/08 06:28:54;;;;;;;18.50;2.87;;;;;;;;;;5023476;28;20187;-67
2022/04/08 06:31:19;;;;;;;9.07;2.47;;;;;;;;;;5019419;28;20194;-67
2022/04/08 06:33:45;;;;;;;5.93;1.80;;;;;;;;;;5020565;28;20185;-67
2022/04/08 06:36:10;;;;;;;8.30;2.60;;;;;;;;;;5025704;28;20678;-67
2022/04/08 06:38:35;;;;;;;10.93;1.93;;;;;;;;;;5022267;28;20186;-67
2022/04/08 06:41:01;;;;;;;11.97;2.47;;;;;;;;;;5023941;28;20190;-67
2022/04/08 06:43:26;;;;;;;8.37;2.60;;;;;;;;;;5026208;28;20588;-68
2022/04/08 06:45:51;;;;;;;9.00;2.07;;;;;;;;;;5025099;28;20194;-68
2022/04/08 06:48:17;;;;;;;8.23;2.00;;;;;;;;;;5024071;28;20177;-68
2022/04/08 06:50:42;;;;;;;8.83;2.10;;;;;;;;;;5025565;28;20181;-68
2022/04/08 06:53:07;;;;;;;13.70;2.20;;;;;;;;;;5022231;28;20217;-68
2022/04/08 06:55:33;;;;;;;6.83;2.20;;;;;;;;;;5024185;28;20698;-68
2022/04/08 06:58:01;;;;;;;8.70;2.00;;;;;;;;;;5023719;28;20186;-68
2022/04/08 07:00:27;;;;;;;8.87;2.23;;;;;;;;;;5023184;28;20171;-68
2022/04/08 07:02:52;;;;;;;8.00;2.40;;;;;;;;;;5024219;28;20181;-68
2022/04/08 07:05:18;;;;;;;10.60;2.50;;;;;;;;;;5023545;28;20946;-68
2022/04/08 07:07:45;;;;;;;11.27;2.27;;;;;;;;;;5025842;28;20185;-68
2022/04/08 07:10:12;;;;;;;11.30;2.30;;;;;;;;;;5022646;28;20222;-68
2022/04/08 07:12:38;;;;;;;9.73;2.60;;;;;;;;;;5027405;28;20498;-68
2022/04/08 07:15:05;;;;;;;5.27;2.10;;;;;;;;;;5025185;28;20174;-68
2022/04/08 07:17:32;;;;;;;8.63;1.93;;;;;;;;;;5025475;28;20228;-68
2022/04/08 07:19:57;;;;;;;11.40;2.17;;;;;;;;;;5022713;28;20193;-68
2022/04/08 07:22:24;;;;;;;11.63;2.10;;;;;;;;;;5025486;28;20190;-68
2022/04/08 07:24:50;;;;;;;8.17;2.23;;;;;;;;;;5025801;28;20219;-68
2022/04/08 07:27:17;;;;;;;9.63;2.00;;;;;;;;;;5024408;28;20186;-68
2022/04/08 07:29:42;;;;;;;6.33;1.63;;;;;;;;;;5022491;28;20193;-68
2022/04/08 07:32:08;;;;;;;8.10;2.17;;;;;;;;;;5018740;28;20613;-68
2022/04/08 07:34:35;;;;;;;9.47;2.17;;;;;;;;;;5020557;28;20206;-68
2022/04/08 07:37:01;;;;;;;10.97;1.87;;;;;;;;;;5016533;28;20182;-68
2022/04/08 07:39:26;;;;;;;7.93;1.90;;;;;;;;;;5022103;28;21577;-68
2022/04/08 07:41:51;;;;;;;10.07;2.00;;;;;;;;;;5021384;28;20672;-68
2022/04/08 07:44:17;;;;;;;5.37;1.97;;;;;;;;;;5016913;28;20206;-68
2022/04/08 07:46:42;;;;;;;9.97;1.97;;;;;;;;;;5026842;28;20240;-68
2022/04/08 07:49:08;;;;;;;6.27;2.00;;;;;;;;;;5024788;28;20184;-67
2022/04/08 07:51:33;;;;;;;8.20;1.57;;;;;;;;;;5025390;28;20185;-66
2022/04/08 07:53:59;;;;;;;9.80;1.50;;;;;;;;;;5020682;28;20221;-67
2022/04/08 07:56:24;;;;;;;10.47;1.77;;;;;;;;;;5026826;28;20178;-67
2022/04/08 07:58:49;;;;;;;7.30;1.33;;;;;;;;;;5024188;28;20241;-67
2022/04/08 08:01:14;;;;;;;11.53;1.97;;;;;;;;;;5018958;28;20671;-66
2022/04/08 08:03:42;;;;;;;13.93;2.20;;;;;;;;;;5021526;28;20192;-66
2022/04/08 08:06:07;;;;;;;10.03;2.23;;;;;;;;;;5024772;28;20313;-66
2022/04/08 08:08:32;;;;;;;7.13;1.37;;;;;;;;;;5026273;28;20268;-66
2022/04/08 08:10:58;;;;;;;9.00;2.27;;;;;;;;;;5024628;28;20246;-67
2022/04/08 08:13:23;;;;;;;11.10;1.90;;;;;;;;;;5021534;28;20201;-67
2022/04/08 08:15:48;;;;;;;9.27;1.87;;;;;;;;;;5024579;28;20223;-67
2022/04/08 08:18:14;;;;;;;7.97;1.77;;;;;;;;;;5022452;28;20192;-67
2022/04/08 08:20:39;;;;;;;16.50;2.43;;;;;;;;;;5022887;28;20197;-67
2022/04/08 08:23:08;;;;;;;10.37;1.80;;;;;;;;;;5020641;28;20727;-67
2022/04/08 08:25:33;;;;;;;11.10;1.63;;;;;;;;;;5023273;28;20577;-67
2022/04/08 08:28:01;;;;;;;6.97;1.50;;;;;;;;;;5025269;28;20194;-66
2022/04/08 08:30:31;;;;;;;7.80;1.33;;;;;;;;;;5026511;28;20218;-66
2022/04/08 08:32:57;;;;;;;10.57;1.87;;;;;;;;;;5020832;28;20202;-66
2022/04/08 08:35:25;;;;;;;6.83;1.30;;;;;;;;;;5023309;28;20189;-67
2022/04/08 08:37:51;;;;;;;7.57;1.48;;;;;;;;;;5025919;28;20186;-67
2022/04/08 08:40:17;;;;;;;14.10;1.73;;;;;;;;;;5025273;28;20921;-67
2022/04/08 08:42:43;;;;;;;7.20;1.27;;;;;;;;;;5017725;28;20255;-67
2022/04/08 08:45:10;;;;;;;10.77;1.73;;;;;;;;;;5022890;28;20206;-66
2022/04/08 08:47:36;;;;;;;6.35;1.70;;;;;;;;;;5023739;28;20201;-66
2022/04/08 08:50:03;;;;;;;7.95;1.63;;;;;;;;;;5022143;28;20554;-66
2022/04/08 08:52:30;;;;;;;9.45;1.55;;;;;;;;;;5027875;28;20193;-67
2022/04/08 08:54:56;;;;;;;7.57;1.50;;;;;;;;;;5030387;28;20493;-66
2022/04/08 08:57:22;;;;;;;8.07;1.50;;;;;;;;;;5029191;28;20185;-67
2022/04/08 08:59:51;;;;;;;9.73;1.77;;;;;;;;;;5028999;28;20191;-66
2022/04/08 09:02:19;;;;;;;5.22;1.30;;;;;;;;;;5029065;28;20182;-67
2022/04/08 09:04:44;;;;;;;9.23;1.55;;;;;;;;;;5023626;28;20210;-66
2022/04/08 09:07:29;;;;;;;7.85;1.40;;;;;;;;;;5029110;28;20657;-67
2022/04/08 09:09:57;;;;;;;7.28;1.17;;;;;;;;;;5024094;28;20721;-66
2022/04/08 09:12:24;;;;;;;7.10;1.15;;;;;;;;;;5029169;28;20170;-67
2022/04/08 09:14:50;;;;;;;13.63;1.70;;;;;;;;;;5022133;28;20224;-66
2022/04/08 09:17:18;;;;;;;5.60;1.40;;;;;;;;;;5027284;28;20257;-66
2022/04/08 09:19:47;;;;;;;6.70;1.25;;;;;;;;;;5022190;28;20178;-67
2022/04/08 09:22:13;;;;;;;7.78;1.05;;;;;;;;;;5024254;28;20178;-67
2022/04/08 09:24:38;;;;;;;6.07;1.20;;;;;;;;;;5022631;28;20663;-67
2022/04/08 09:27:03;;;;;;;10.35;1.50;;;;;;;;;;5016798;28;20190;-67
2022/04/08 09:29:29;;;;;;;10.95;1.27;;;;;;;;;;5027639;28;20194;-67
2022/04/08 09:31:57;;;;;;;8.23;1.25;;;;;;;;;;5015347;28;20196;-67
2022/04/08 09:34:23;;;;;;;5.32;1.10;;;;;;;;;;5028809;28;20614;-67
2022/04/08 09:36:49;;;;;;;9.90;1.20;;;;;;;;;;5019162;28;20178;-66
2022/04/08 09:39:14;;;;;;;6.28;1.17;;;;;;;;;;5026633;28;20177;-66
2022/04/08 09:41:42;;;;;;;7.32;0.90;;;;;;;;;;5022713;28;20181;-66
2022/04/08 09:44:09;;;;;;;5.72;0.88;;;;;;;;;;5025961;28;20240;-67
2022/04/08 09:46:36;;;;;;;3.40;0.75;;;;;;;;;;5012539;28;20305;-66
2022/04/08 09:49:05;;;;;;;7.38;1.35;;;;;;;;;;5029274;28;20178;-66
2022/04/08 09:51:36;;;;;;;7.45;1.35;;;;;;;;;;5030462;28;20182;-66
2022/04/08 09:54:05;;;;;;;7.18;1.67;;;;;;;;;;5025213;28;20190;-66
2022/04/08 09:56:30;;;;;;;4.38;1.00;;;;;;;;;;5022322;28;20181;-67
2022/04/08 09:59:19;;;;;;;6.35;0.80;;;;;;;;;;5025640;28;20281;-66
2022/04/08 10:01:46;;;;;;;7.97;1.10;;;;;;;;;;5024114;28;20668;-67
2022/04/08 10:04:12;;;;;;;5.38;1.02;;;;;;;;;;5024089;28;20202;-67
2022/04/08 10:06:39;;;;;;;6.72;1.15;;;;;;;;;;5028410;28;20233;-66
2022/04/08 10:09:07;;;;;;;6.05;0.77;;;;;;;;;;5014225;28;20186;-66
2022/04/08 10:12:09;;;;;;;5.60;1.02;;;;;;;;;;5029681;28;20232;-67
2022/04/08 10:14:45;;;;;;;7.20;0.80;;;;;;;;;;5022032;28;20193;-66
2022/04/08 10:17:11;;;;;;;4.22;0.93;;;;;;;;;;5008765;28;20170;-67
2022/04/08 10:19:36;;;;;;;4.65;1.30;;;;;;;;;;5032145;28;20186;-67
2022/04/08 10:22:02;;;;;;;7.90;1.10;;;;;;;;;;5023932;28;20178;-66
2022/04/08 10:24:30;;;;;;;4.32;0.80;;;;;;;;;;5027276;28;20225;-67
2022/04/08 10:27:04;;;;;;;6.95;0.85;;;;;;;;;;5022861;28;20743;-67
2022/04/08 10:29:32;;;;;;;4.65;0.90;;;;;;;;;;5023299;28;20598;-67
2022/04/08 10:32:02;;;;;;;4.03;1.00;;;;;;;;;;5025962;28;20198;-67
2022/04/08 10:34:28;;;;;;;6.85;0.90;;;;;;;;;;5026583;28;20240;-67
2022/04/08 10:36:54;;;;;;;7.93;1.42;;;;;;;;;;5026707;28;20265;-67
2022/04/08 10:39:22;;;;;;;5.25;1.42;;;;;;;;;;5026891;28;20616;-67
2022/04/08 10:41:50;;;;;;;4.15;0.90;;;;;;;;;;5026776;28;20186;-67
2022/04/08 10:44:17;;;;;;;4.18;1.05;;;;;;;;;;5027162;28;20279;-67
2022/04/08 10:46:50;;;;;;;4.28;0.90;;;;;;;;;;5022743;28;20228;-67
2022/04/08 10:49:16;;;;;;;4.43;0.98;;;;;;;;;;5023513;28;20193;-67
2022/04/08 10:51:47;;;;;;;5.47;0.95;;;;;;;;;;5026262;28;20185;-67
2022/04/08 10:54:12;;;;;;;5.75;1.00;;;;;;;;;;5026190;28;20268;-66
2022/04/08 10:56:38;;;;;;;2.40;0.90;;;;;;;;;;5021324;28;20281;-66
2022/04/08 10:59:04;;;;;;;3.67;1.00;;;;;;;;;;5021287;28;20253;-66
2022/04/08 11:01:34;;;;;;;2.47;0.75;;;;;;;;;;5021625;28;20452;-67
2022/04/08 11:04:05;;;;;;;8.75;0.98;;;;;;;;;;5015854;28;20237;-67
2022/04/08 11:06:35;;;;;;;3.30;0.70;;;;;;;;;;5027212;28;20293;-66
2022/04/08 11:09:12;;;;;;;3.03;0.70;;;;;;;;;;5010176;28;20179;-66
2022/04/08 11:11:42;;;;;;;4.68;1.25;;;;;;;;;;5021217;28;21579;-67
2022/04/08 11:14:08;;;;;;;3.70;0.68;;;;;;;;;;5025271;28;20305;-66
2022/04/08 11:16:35;;;;;;;4.57;0.80;;;;;;;;;;5011978;28;20187;-67
2022/04/08 11:19:05;;;;;;;4.28;0.75;;;;;;;;;;5018979;28;20249;-68
2022/04/08 11:21:32;;;;;;;2.67;0.80;;;;;;;;;;5020999;28;20265;-67
2022/04/08 11:24:00;;;;;;;1.77;0.60;;;;;;;;;;5013205;28;20596;-68
2022/04/08 11:26:28;;;;;;;4.95;1.00;;;;;;;;;;5026776;28;20225;-68
2022/04/08 11:28:53;;;;;;;3.72;0.60;;;;;;;;;;5016888;28;20252;-68
2022/04/08 11:31:19;;;;;;;5.50;1.00;;;;;;;;;;5021473;28;20210;-68
2022/04/08 11:33:44;;;;;;;5.18;0.85;;;;;;;;;;5028534;28;20182;-68
2022/04/08 11:36:10;;;;;;;4.55;1.25;;;;;;;;;;5016705;28;20703;-68
2022/04/08 11:38:35;;;;;;;3.60;1.05;;;;;;;;;;5017684;28;20273;-67
2022/04/08 11:41:02;;;;;;;4.10;0.82;;;;;;;;;;5014931;28;20379;-67
2022/04/08 11:43:28;;;;;;;6.25;0.80;;;;;;;;;;5024190;28;20257;-67
2022/04/08 11:45:53;;;;;;;5.88;1.20;;;;;;;;;;5017524;28;20221;-67
2022/04/08 11:48:20;;;;;;;3.28;0.80;;;;;;;;;;5027049;28;20214;-67
2022/04/08 11:50:47;;;;;;;7.10;1.00;;;;;;;;;;5025956;28;20189;-67
2022/04/08 11:53:20;;;;;;;4.50;0.98;;;;;;;;;;5017626;28;20205;-67
2022/04/08 11:56:01;;;;;;;7.65;1.17;;;;;;;;;;5019500;28;20175;-67
2022/04/08 11:58:28;;;;;;;8.23;1.40;;;;;;;;;;5027112;28;20204;-67
2022/04/08 12:00:54;;;;;;;4.63;0.93;;;;;;;;;;5018363;28;20189;-67
2022/04/08 12:03:27;;;;;;;6.97;1.10;;;;;;;;;;5019878;28;20565;-67
2022/04/08 12:05:53;;;;;;;6.10;1.13;;;;;;;;;;5026239;28;20202;-67
2022/04/08 12:08:18;;;;;;;9.60;1.33;;;;;;;;;;5026120;28;20193;-66
2022/04/08 12:10:45;;;;;;;7.40;1.10;;;;;;;;;;5024354;28;20623;-66
2022/04/08 12:13:19;;;;;;;3.55;0.95;;;;;;;;;;5025977;28;20657;-67
2022/04/08 12:15:48;;;;;;;6.55;1.13;;;;;;;;;;5023482;28;20173;-66
2022/04/08 12:18:23;;;;;;;6.78;1.02;;;;;;;;;;5025840;28;20260;-67
2022/04/08 12:21:05;;;;;;;4.07;1.10;;;;;;;;;;5018307;28;20182;-67
2022/04/08 12:23:31;;;;;;;9.50;1.20;;;;;;;;;;5024759;28;20205;-66
2022/04/08 12:25:58;;;;;;;3.05;0.77;;;;;;;;;;5028346;28;20236;-67
2022/04/08 12:28:29;;;;;;;4.28;1.08;;;;;;;;;;5022750;28;20182;-67
2022/04/08 12:30:54;;;;;;;6.30;2.20;;;;;;;;;;5026167;28;20201;-67
2022/04/08 12:33:20;;;;;;;9.40;1.67;;;;;;;;;;5029637;28;20657;-67
2022/04/08 12:35:46;;;;;;;4.15;1.23;;;;;;;;;;5030743;28;20634;-66
2022/04/08 12:38:14;;;;;;;4.03;1.10;;;;;;;;;;5028292;28;20297;-66
2022/04/08 12:40:40;;;;;;;6.57;1.35;;;;;;;;;;5026863;28;20281;-66
2022/04/08 12:43:06;;;;;;;5.20;0.57;;;;;;;;;;5028245;28;20232;-67
2022/04/08 12:45:31;;;;;;;3.17;0.82;;;;;;;;;;5027244;28;20474;-66
2022/04/08 12:47:57;;;;;;;5.18;0.70;;;;;;;;;;5023979;28;20490;-67
2022/04/08 12:50:23;;;;;;;3.90;0.85;;;;;;;;;;5026204;28;20590;-66
2022/04/08 12:52:49;;;;;;;6.75;0.98;;;;;;;;;;5028025;28;20197;-66
2022/04/08 12:55:14;;;;;;;5.95;0.98;;;;;;;;;;5022156;28;20551;-66
2022/04/08 12:57:41;;;;;;;5.60;1.25;;;;;;;;;;5027208;28;20182;-67
2022/04/08 13:00:11;;;;;;;5.63;0.90;;;;;;;;;;5028119;28;20182;-66
2022/04/08 13:02:38;;;;;;;5.43;1.20;;;;;;;;;;5026686;28;20405;-67
2022/04/08 13:05:04;;;;;;;7.55;1.20;;;;;;;;;;5022078;28;20284;-66
2022/04/08 13:07:29;;;;;;;4.57;0.80;;;;;;;;;;5022770;28;20820;-66
2022/04/08 13:09:54;;;;;;;2.42;0.98;;;;;;;;;;5026122;28;20236;-67
2022/04/08 13:12:20;;;;;;;8.55;0.98;;;;;;;;;;5024816;28;20499;-67
2022/04/08 13:14:47;;;;;;;6.40;1.08;;;;;;;;;;5027697;28;20253;-67
2022/04/08 13:17:12;;;;;;;6.25;0.90;;;;;;;;;;5028869;28;20676;-67
2022/04/08 13:19:37;;;;;;;3.90;0.90;;;;;;;;;;5028050;28;20182;-67
2022/04/08 13:22:03;;;;;;;3.42;1.00;;;;;;;;;;5027620;28;20190;-67
2022/04/08 13:24:28;;;;;;;5.18;1.05;;;;;;;;;;5026750;28;20379;-67
2022/04/08 13:26:54;;;;;;;4.93;0.88;;;;;;;;;;5026399;28;20257;-67
2022/04/08 13:29:19;;;;;;;4.25;0.60;;;;;;;;;;5029427;28;20459;-67
2022/04/08 13:31:44;;;;;;;2.63;0.63;;;;;;;;;;5026834;28;20573;-67
2022/04/08 13:34:09;;;;;;;7.82;1.00;;;;;;;;;;5027753;28;20193;-66
2022/04/08 13:36:35;;;;;;;3.30;1.35;;;;;;;;;;5025507;28;20179;-68
2022/04/08 13:39:00;;;;;;;3.63;0.80;;;;;;;;;;5028710;28;20186;-66
2022/04/08 13:41:26;;;;;;;6.35;1.88;;;;;;;;;;5027260;28;20182;-66
2022/04/08 13:43:51;;;;;;;6.28;1.33;;;;;;;;;;5027270;28;20281;-67
2022/04/08 13:46:17;;;;;;;4.45;1.27;;;;;;;;;;5027648;28;20744;-66
2022/04/08 13:48:42;;;;;;;3.47;1.02;;;;;;;;;;5029302;28;20197;-67
2022/04/08 13:51:08;;;;;;;3.17;1.05;;;;;;;;;;5026014;28;20191;-66
2022/04/08 13:53:34;;;;;;;2.00;0.85;;;;;;;;;;5028600;28;20661;-66
2022/04/08 13:55:59;;;;;;;3.28;0.55;;;;;;;;;;5025098;28;20182;-66
2022/04/08 13:58:25;;;;;;;6.25;1.10;;;;;;;;;;5028450;28;20201;-67
2022/04/08 14:00:50;;;;;;;3.60;0.77;;;;;;;;;;5026130;28;20182;-67
2022/04/08 14:03:16;;;;;;;4.00;1.10;;;;;;;;;;5020531;28;20193;-67
2022/04/08 14:05:41;;;;;;;6.60;0.93;;;;;;;;;;5024913;28;20229;-67
2022/04/08 14:08:08;;;;;;;2.30;0.70;;;;;;;;;;5023462;28;20198;-67
2022/04/08 14:10:34;;;;;;;6.20;0.90;;;;;;;;;;5022485;28;20230;-67
2022/04/08 14:13:03;;;;;;;8.35;1.40;;;;;;;;;;5024551;28;20269;-67
2022/04/08 14:15:29;;;;;;;3.22;1.00;;;;;;;;;;5026818;28;20618;-66
2022/04/08 14:17:54;;;;;;;5.43;0.98;;;;;;;;;;5026942;28;20190;-67
2022/04/08 14:20:20;;;;;;;4.53;1.17;;;;;;;;;;5026134;28;20186;-67
2022/04/08 14:22:45;;;;;;;5.65;0.95;;;;;;;;;;5027556;28;20185;-67
2022/04/08 14:25:11;;;;;;;5.35;1.13;;;;;;;;;;5026066;28;20190;-67
2022/04/08 14:27:36;;;;;;;5.53;1.08;;;;;;;;;;5024246;28;20181;-67
2022/04/08 14:30:02;;;;;;;10.18;1.48;;;;;;;;;;5025703;28;20676;-67
2022/04/08 14:32:28;;;;;;;3.13;1.10;;;;;;;;;;5027013;28;20198;-67
2022/04/08 14:34:53;;;;;;;5.40;2.10;;;;;;;;;;5026737;28;20186;-66